createdAt,value
2018-11-28T00:00:31.518Z,39.63
2018-11-28T00:03:04.112Z,38.70
2018-11-28T00:05:32.624Z,37.00
2018-11-28T00:08:01.312Z,38.07
2018-11-28T00:10:29.850Z,39.17
2018-11-28T00:12:58.519Z,39.97
2018-11-28T00:15:27.064Z,36.97
2018-11-28T00:17:55.742Z,37.87
2018-11-28T00:20:24.481Z,38.53
2018-11-28T00:22:53.022Z,43.67
2018-11-28T00:25:21.543Z,36.57
2018-11-28T00:27:50.108Z,36.47
2018-11-28T00:30:22.492Z,40.93
2018-11-28T00:32:51.241Z,36.93
2018-11-28T00:35:21.121Z,39.87
2018-11-28T00:37:49.806Z,36.73
2018-11-28T00:40:19.858Z,40.00
2018-11-28T00:42:48.758Z,38.90
2018-11-28T00:45:20.587Z,44.20
2018-11-28T00:47:49.159Z,41.00
2018-11-28T00:50:24.839Z,40.50
2018-11-28T00:52:53.431Z,40.90
2018-11-28T00:55:22.010Z,42.43
2018-11-28T00:57:50.615Z,42.60
2018-11-28T01:00:20.858Z,50.90
2018-11-28T01:02:49.990Z,52.17
2018-11-28T01:05:18.819Z,49.40
2018-11-28T01:07:49.379Z,54.07
2018-11-28T01:10:19.259Z,48.00
2018-11-28T01:12:48.514Z,52.07
2018-11-28T01:15:18.284Z,48.07
2018-11-28T01:17:46.997Z,50.87
2018-11-28T01:20:17.612Z,51.47
2018-11-28T01:22:46.206Z,55.10
2018-11-28T01:25:15.956Z,52.13
2018-11-28T01:27:44.636Z,57.13
2018-11-28T01:30:19.198Z,50.80
2018-11-28T01:32:47.943Z,56.57
2018-11-28T01:35:18.772Z,53.03
2018-11-28T01:37:47.341Z,55.07
2018-11-28T01:40:17.914Z,60.93
2018-11-28T01:42:46.823Z,57.57
2018-11-28T01:45:18.347Z,58.63
2018-11-28T01:47:47.066Z,54.87
2018-11-28T01:50:16.718Z,56.10
2018-11-28T01:52:45.352Z,53.60
2018-11-28T01:55:16.091Z,56.63
2018-11-28T01:57:44.688Z,52.37
2018-11-28T02:00:17.201Z,48.93
2018-11-28T02:02:46.275Z,53.03
2018-11-28T02:05:14.994Z,49.97
2018-11-28T02:07:44.023Z,47.73
2018-11-28T02:10:13.874Z,50.20
2018-11-28T02:12:42.590Z,50.13
2018-11-28T02:15:16.035Z,50.13
2018-11-28T02:17:44.723Z,45.43
2018-11-28T02:20:14.370Z,48.03
2018-11-28T02:22:42.890Z,40.37
2018-11-28T02:25:13.647Z,43.70
2018-11-28T02:27:42.311Z,42.97
2018-11-28T02:30:16.733Z,44.43
2018-11-28T02:32:46.070Z,45.20
2018-11-28T02:35:15.398Z,39.17
2018-11-28T02:37:44.083Z,41.57
2018-11-28T02:40:13.626Z,40.83
2018-11-28T02:42:42.186Z,42.80
2018-11-28T02:45:16.587Z,38.07
2018-11-28T02:47:45.235Z,38.93
2018-11-28T02:50:13.885Z,41.60
2018-11-28T02:52:42.997Z,41.30
2018-11-28T02:55:13.612Z,40.80
2018-11-28T02:57:43.319Z,40.50
2018-11-28T03:00:18.036Z,40.33
2018-11-28T03:02:46.667Z,41.83
2018-11-28T03:05:15.383Z,42.23
2018-11-28T03:07:43.977Z,40.07
2018-11-28T03:10:14.731Z,39.27
2018-11-28T03:12:43.442Z,34.30
2018-11-28T03:15:14.529Z,43.37
2018-11-28T03:17:43.198Z,40.57
2018-11-28T03:20:12.237Z,44.43
2018-11-28T03:22:40.767Z,44.03
2018-11-28T03:25:11.420Z,43.93
2018-11-28T03:27:40.108Z,43.00
2018-11-28T03:30:14.916Z,43.37
2018-11-28T03:32:43.495Z,44.43
2018-11-28T03:35:13.380Z,42.13
2018-11-28T03:37:41.995Z,35.57
2018-11-28T03:40:10.643Z,44.80
2018-11-28T03:42:39.818Z,41.13
2018-11-28T03:45:11.741Z,44.47
2018-11-28T03:47:40.498Z,42.87
2018-11-28T03:50:10.427Z,43.63
2018-11-28T03:52:39.827Z,44.53
2018-11-28T03:55:10.692Z,45.03
2018-11-28T03:57:39.235Z,45.57
2018-11-28T04:00:10.836Z,44.17
2018-11-28T04:02:39.519Z,42.33
2018-11-28T04:05:08.493Z,44.80
2018-11-28T04:07:37.025Z,52.23
2018-11-28T04:10:08.678Z,44.80
2018-11-28T04:12:37.209Z,49.40
2018-11-28T04:15:10.694Z,47.13
2018-11-28T04:17:39.260Z,44.83
2018-11-28T04:20:10.739Z,45.53
2018-11-28T04:22:39.314Z,47.93
2018-11-28T04:25:09.196Z,45.37
2018-11-28T04:27:37.755Z,47.63
2018-11-28T04:30:11.927Z,48.07
2018-11-28T04:32:40.721Z,47.43
2018-11-28T04:35:12.704Z,46.30
2018-11-28T04:37:41.584Z,47.37
2018-11-28T04:40:15.160Z,46.60
2018-11-28T04:42:44.173Z,49.97
2018-11-28T04:45:17.936Z,50.07
2018-11-28T04:47:46.644Z,49.57
2018-11-28T04:50:15.254Z,47.60
2018-11-28T04:52:43.964Z,46.13
2018-11-28T04:55:15.485Z,50.87
2018-11-28T04:57:44.626Z,47.53
2018-11-28T05:00:19.210Z,46.90
2018-11-28T05:02:48.045Z,47.30
2018-11-28T05:05:16.579Z,46.00
2018-11-28T05:07:46.107Z,43.37
2018-11-28T05:10:15.851Z,45.10
2018-11-28T05:12:44.366Z,49.40
2018-11-28T05:15:14.150Z,47.80
2018-11-28T05:17:42.998Z,44.50
2018-11-28T05:20:13.763Z,49.10
2018-11-28T05:22:42.301Z,44.30
2018-11-28T05:25:13.558Z,46.47
2018-11-28T05:27:42.120Z,48.27
2018-11-28T05:30:17.749Z,49.00
2018-11-28T05:32:46.880Z,43.67
2018-11-28T05:35:21.313Z,52.23
2018-11-28T05:37:50.491Z,45.40
2018-11-28T05:40:21.324Z,50.43
2018-11-28T05:42:52.793Z,44.20
2018-11-28T05:45:21.570Z,44.77
2018-11-28T05:47:52.046Z,48.30
2018-11-28T05:50:22.777Z,51.67
2018-11-28T05:52:53.438Z,43.37
2018-11-28T05:55:23.625Z,47.07
2018-11-28T05:57:52.268Z,44.70
2018-11-28T06:00:30.022Z,45.17
2018-11-28T06:02:59.736Z,48.10
2018-11-28T06:05:28.559Z,47.47
2018-11-28T06:07:57.117Z,48.20
2018-11-28T06:10:26.351Z,45.00
2018-11-28T06:12:55.326Z,45.63
2018-11-28T06:15:23.976Z,43.67
2018-11-28T06:17:52.667Z,47.73
2018-11-28T06:20:21.959Z,42.60
2018-11-28T06:22:50.663Z,47.23
2018-11-28T06:25:19.755Z,49.20
2018-11-28T06:27:48.557Z,50.53
2018-11-28T06:30:18.841Z,49.63
2018-11-28T06:32:51.253Z,48.47
2018-11-28T06:35:17.042Z,52.10
2018-11-28T06:37:45.836Z,43.93
2018-11-28T06:40:16.531Z,48.03
2018-11-28T06:42:46.663Z,47.90
2018-11-28T06:45:17.883Z,50.20
2018-11-28T06:47:46.828Z,53.37
2018-11-28T06:50:16.580Z,51.50
2018-11-28T06:52:47.043Z,50.03
2018-11-28T06:55:16.757Z,48.37
2018-11-28T06:57:45.338Z,46.00
2018-11-28T07:00:16.045Z,48.97
2018-11-28T07:02:44.662Z,50.40
2018-11-28T07:05:13.740Z,48.00
2018-11-28T07:07:42.450Z,48.70
2018-11-28T07:10:17.118Z,46.00
2018-11-28T07:12:45.874Z,52.10
2018-11-28T07:15:16.203Z,51.73
2018-11-28T07:17:45.168Z,51.47
2018-11-28T07:20:15.730Z,51.60
2018-11-28T07:22:44.335Z,51.60
2018-11-28T07:25:17.105Z,47.70
2018-11-28T07:27:46.667Z,47.07
2018-11-28T07:30:17.560Z,47.07
2018-11-28T07:32:46.669Z,46.47
2018-11-28T07:35:15.631Z,52.03
2018-11-28T07:37:44.346Z,55.07
2018-11-28T07:40:16.501Z,50.07
2018-11-28T07:42:49.302Z,53.00
2018-11-28T07:45:18.744Z,48.03
2018-11-28T07:47:47.346Z,51.13
2018-11-28T07:50:16.395Z,49.73
2018-11-28T07:52:44.910Z,47.90
2018-11-28T07:55:14.198Z,50.53
2018-11-28T07:57:42.876Z,48.73
2018-11-28T08:00:14.762Z,50.10
2018-11-28T08:02:44.050Z,48.90
2018-11-28T08:05:13.120Z,44.87
2018-11-28T08:07:42.375Z,49.87
2018-11-28T08:10:16.822Z,45.60
2018-11-28T08:12:45.827Z,48.40
2018-11-28T08:15:15.099Z,46.10
2018-11-28T08:17:44.144Z,47.07
2018-11-28T08:20:12.730Z,48.43
2018-11-28T08:22:41.328Z,43.90
2018-11-28T08:25:12.790Z,50.07
2018-11-28T08:27:40.184Z,43.67
2018-11-28T08:30:24.619Z,43.13
2018-11-28T08:32:53.703Z,46.97
2018-11-28T08:35:22.511Z,48.50
2018-11-28T08:37:51.423Z,43.20
2018-11-28T08:40:21.404Z,47.03
2018-11-28T08:42:50.778Z,43.73
2018-11-28T08:45:20.473Z,43.40
2018-11-28T08:47:50.134Z,41.90
2018-11-28T08:50:21.248Z,43.10
2018-11-28T08:52:49.834Z,41.77
2018-11-28T08:55:18.464Z,43.17
2018-11-28T08:57:47.180Z,37.70
2018-11-28T09:00:18.639Z,36.57
2018-11-28T09:02:48.275Z,39.17
2018-11-28T09:05:16.842Z,41.80
2018-11-28T09:07:46.002Z,39.83
2018-11-28T09:10:15.592Z,39.67
2018-11-28T09:12:44.720Z,41.07
2018-11-28T09:15:15.331Z,41.77
2018-11-28T09:17:43.972Z,38.43
2018-11-28T09:20:13.612Z,41.00
2018-11-28T09:22:42.167Z,40.33
2018-11-28T09:25:12.187Z,42.17
2018-11-28T09:27:41.546Z,34.80
2018-11-28T09:30:15.379Z,36.47
2018-11-28T09:32:44.070Z,41.23
2018-11-28T09:35:13.382Z,43.67
2018-11-28T09:37:45.591Z,41.20
2018-11-28T09:40:17.520Z,38.10
2018-11-28T09:42:47.811Z,38.17
2018-11-28T09:45:17.583Z,36.50
2018-11-28T09:47:46.246Z,40.63
2018-11-28T09:50:18.877Z,40.23
2018-11-28T09:52:47.666Z,38.10
2018-11-28T09:55:17.532Z,39.87
2018-11-28T09:57:46.166Z,41.37
2018-11-28T10:00:18.021Z,40.17
2018-11-28T10:02:46.826Z,36.67
2018-11-28T10:05:16.870Z,36.07
2018-11-28T10:07:45.471Z,35.87
2018-11-28T10:10:14.574Z,34.47
2018-11-28T10:12:43.395Z,38.63
2018-11-28T10:15:17.454Z,33.33
2018-11-28T10:17:46.337Z,37.37
2018-11-28T10:20:15.822Z,33.83
2018-11-28T10:22:44.884Z,36.63
2018-11-28T10:25:14.564Z,35.87
2018-11-28T10:27:44.150Z,32.20
2018-11-28T10:30:16.182Z,35.70
2018-11-28T10:32:44.819Z,35.10
2018-11-28T10:35:13.502Z,36.13
2018-11-28T10:37:42.113Z,36.70
2018-11-28T10:40:15.525Z,32.97
2018-11-28T10:42:44.514Z,32.57
2018-11-28T10:45:14.325Z,33.03
2018-11-28T10:47:43.014Z,32.30
2018-11-28T10:50:13.983Z,29.83
2018-11-28T10:52:42.840Z,31.53
2018-11-28T10:55:13.583Z,32.27
2018-11-28T10:57:43.174Z,29.70
2018-11-28T11:00:21.531Z,34.63
2018-11-28T11:02:55.290Z,31.10
2018-11-28T11:05:29.205Z,30.97
2018-11-28T11:08:03.009Z,31.27
2018-11-28T11:10:37.302Z,30.57
2018-11-28T11:13:11.808Z,33.60
2018-11-28T11:15:40.472Z,28.33
2018-11-28T11:18:10.960Z,29.47
2018-11-28T11:20:39.044Z,28.13
2018-11-28T11:23:08.758Z,25.23
2018-11-28T11:25:37.378Z,28.20
2018-11-28T11:28:06.446Z,28.90
2018-11-28T11:30:35.177Z,27.07
2018-11-28T11:33:04.128Z,30.23
2018-11-28T11:35:33.362Z,28.00
2018-11-28T11:38:02.006Z,28.53
2018-11-28T11:40:30.662Z,30.13
2018-11-28T11:42:59.244Z,30.00
2018-11-28T11:45:27.929Z,29.57
2018-11-28T11:47:56.540Z,29.30
2018-11-28T11:50:25.171Z,25.47
2018-11-28T11:52:54.078Z,27.93
2018-11-28T11:55:23.199Z,26.60
2018-11-28T11:57:51.770Z,27.97
2018-11-28T12:00:25.963Z,27.07
2018-11-28T12:03:06.651Z,26.43
2018-11-28T12:05:35.509Z,26.93
2018-11-28T12:08:04.210Z,25.30
2018-11-28T12:10:32.946Z,29.13
2018-11-28T12:13:02.313Z,32.23
2018-11-28T12:15:30.928Z,25.43
2018-11-28T12:17:59.947Z,24.87
2018-11-28T12:20:32.407Z,28.77
2018-11-28T12:23:01.111Z,29.60
2018-11-28T12:25:29.908Z,27.23
2018-11-28T12:27:59.138Z,27.87
2018-11-28T12:30:28.235Z,25.53
2018-11-28T12:32:56.736Z,24.67
2018-11-28T12:35:25.689Z,25.70
2018-11-28T12:37:54.250Z,24.90
2018-11-28T12:40:22.943Z,29.20
2018-11-28T12:42:52.691Z,29.50
2018-11-28T12:45:21.950Z,25.37
2018-11-28T12:47:50.558Z,29.77
2018-11-28T12:50:27.297Z,27.67
2018-11-28T12:52:57.271Z,27.87
2018-11-28T12:55:26.019Z,24.87
2018-11-28T12:57:55.767Z,25.13
2018-11-28T13:00:26.762Z,23.50
2018-11-28T13:02:55.515Z,26.33
2018-11-28T13:05:25.570Z,22.83
2018-11-28T13:07:54.835Z,23.47
2018-11-28T13:10:26.606Z,20.57
2018-11-28T13:12:56.276Z,21.57
2018-11-28T13:15:25.991Z,20.30
2018-11-28T13:17:54.582Z,25.30
2018-11-28T13:20:24.047Z,21.07
2018-11-28T13:22:55.011Z,23.10
2018-11-28T13:25:24.815Z,23.47
2018-11-28T13:27:53.513Z,22.03
2018-11-28T13:30:23.047Z,24.03
2018-11-28T13:32:52.259Z,21.53
2018-11-28T13:35:21.882Z,22.03
2018-11-28T13:37:51.695Z,21.57
2018-11-28T13:40:20.992Z,22.70
2018-11-28T13:42:49.600Z,22.73
2018-11-28T13:45:22.486Z,24.10
2018-11-28T13:47:52.364Z,23.40
2018-11-28T13:50:21.109Z,23.13
2018-11-28T13:52:50.215Z,23.20
2018-11-28T13:55:44.015Z,25.67
2018-11-28T13:57:57.321Z,25.17
2018-11-28T14:00:26.523Z,24.47
2018-11-28T14:02:55.188Z,26.70
2018-11-28T14:05:23.797Z,24.40
2018-11-28T14:07:52.482Z,23.60
2018-11-28T14:10:21.285Z,20.97
2018-11-28T14:12:50.648Z,23.87
2018-11-28T14:15:22.052Z,25.67
2018-11-28T14:18:07.410Z,23.43
2018-11-28T14:20:35.948Z,25.03
2018-11-28T14:23:04.526Z,23.80
2018-11-28T14:25:33.476Z,24.67
2018-11-28T14:28:02.162Z,24.30
2018-11-28T14:30:31.215Z,23.70
2018-11-28T14:32:59.761Z,26.40
2018-11-28T14:35:28.318Z,25.57
2018-11-28T14:37:56.884Z,24.97
2018-11-28T14:40:25.927Z,30.73
2018-11-28T14:42:56.630Z,24.33
2018-11-28T14:45:25.784Z,26.43
2018-11-28T14:47:54.391Z,24.23
2018-11-28T14:50:25.180Z,26.50
2018-11-28T14:52:54.871Z,27.33
2018-11-28T14:55:26.471Z,28.43
2018-11-28T14:57:55.051Z,27.97
2018-11-28T15:00:24.667Z,25.50
2018-11-28T15:02:57.507Z,29.83
2018-11-28T15:05:34.978Z,29.23
2018-11-28T15:08:06.443Z,31.63
2018-11-28T15:10:48.107Z,28.23
2018-11-28T15:13:16.671Z,29.10
2018-11-28T15:15:45.198Z,31.60
2018-11-28T15:18:13.778Z,31.70
2018-11-28T15:20:43.115Z,36.70
2018-11-28T15:23:11.709Z,31.17
2018-11-28T15:25:40.247Z,30.93
2018-11-28T15:28:08.895Z,31.40
2018-11-28T15:30:37.439Z,32.70
2018-11-28T15:33:06.052Z,34.20
2018-11-28T15:35:34.559Z,32.87
2018-11-28T15:38:03.163Z,32.17
2018-11-28T15:40:31.711Z,38.87
2018-11-28T15:43:00.337Z,33.40
2018-11-28T15:45:29.669Z,35.00
2018-11-28T15:47:58.219Z,39.03
2018-11-28T15:50:26.815Z,38.30
2018-11-28T15:52:55.434Z,35.50
2018-11-28T15:55:24.075Z,38.53
2018-11-28T15:57:52.640Z,31.43
2018-11-28T16:00:22.743Z,32.43
2018-11-28T16:02:51.341Z,36.50
2018-11-28T16:05:20.017Z,38.33
2018-11-28T16:07:48.686Z,32.60
2018-11-28T16:10:22.551Z,32.07
2018-11-28T16:12:51.569Z,36.40
2018-11-28T16:15:23.650Z,36.63
2018-11-28T16:17:52.267Z,38.03
2018-11-28T16:20:20.956Z,34.43
2018-11-28T16:22:49.577Z,40.23
2018-11-28T16:25:18.130Z,34.23
2018-11-28T16:27:46.818Z,35.50
2018-11-28T16:30:16.203Z,38.40
2018-11-28T16:32:47.358Z,36.47
2018-11-28T16:35:19.051Z,39.83
2018-11-28T16:37:50.841Z,39.67
2018-11-28T16:40:24.059Z,39.80
2018-11-28T16:42:55.006Z,35.50
2018-11-28T16:45:25.844Z,41.03
2018-11-28T16:47:56.992Z,35.80
2018-11-28T16:50:28.428Z,39.37
2018-11-28T16:52:59.692Z,43.10
2018-11-28T16:55:30.805Z,37.87
2018-11-28T16:58:01.862Z,42.77
2018-11-28T17:00:34.407Z,36.60
2018-11-28T17:03:05.103Z,45.33
2018-11-28T17:05:36.254Z,43.37
2018-11-28T17:08:08.234Z,43.20
2018-11-28T17:10:36.942Z,42.87
2018-11-28T17:13:06.046Z,45.33
2018-11-28T17:15:34.683Z,48.40
2018-11-28T17:18:03.280Z,43.00
2018-11-28T17:20:34.329Z,46.90
2018-11-28T17:23:04.223Z,39.70
2018-11-28T17:25:33.337Z,49.47
2018-11-28T17:28:01.934Z,45.93
2018-11-28T17:30:31.098Z,42.13
2018-11-28T17:32:59.734Z,47.27
2018-11-28T17:35:33.343Z,42.53
2018-11-28T17:38:09.823Z,49.00
2018-11-28T17:40:43.181Z,45.27
2018-11-28T17:43:28.951Z,47.80
2018-11-28T17:45:57.607Z,47.13
2018-11-28T17:48:26.280Z,48.80
2018-11-28T17:50:56.018Z,47.67
2018-11-28T17:53:24.945Z,50.57
2018-11-28T17:55:56.201Z,50.73
2018-11-28T17:58:24.835Z,46.00
2018-11-28T18:00:54.560Z,50.97
2018-11-28T18:03:24.105Z,56.47
2018-11-28T18:05:53.879Z,50.17
2018-11-28T18:08:22.464Z,52.83
2018-11-28T18:10:51.115Z,52.00
2018-11-28T18:13:20.012Z,51.80
2018-11-28T18:15:54.730Z,51.17
2018-11-28T18:18:25.549Z,57.60
2018-11-28T18:20:54.213Z,55.73
2018-11-28T18:23:22.759Z,55.63
2018-11-28T18:25:53.265Z,50.00
2018-11-28T18:28:23.380Z,51.73
2018-11-28T18:30:53.713Z,59.37
2018-11-28T18:33:25.338Z,58.77
2018-11-28T18:35:55.373Z,61.00
2018-11-28T18:38:25.408Z,59.53
2018-11-28T18:40:55.471Z,56.70
2018-11-28T18:43:24.762Z,54.27
2018-11-28T18:45:54.894Z,56.50
2018-11-28T18:48:24.958Z,61.20
2018-11-28T18:50:54.994Z,61.13
2018-11-28T18:53:23.843Z,60.73
2018-11-28T18:55:53.681Z,59.83
2018-11-28T18:58:23.464Z,60.80
2018-11-28T19:00:53.214Z,59.43
2018-11-28T19:03:22.963Z,54.73
2018-11-28T19:05:53.330Z,60.90
2018-11-28T19:08:23.570Z,56.77
2018-11-28T19:10:53.257Z,60.80
2018-11-28T19:13:22.928Z,58.37
2018-11-28T19:15:52.548Z,60.53
2018-11-28T19:18:22.552Z,56.23
2018-11-28T19:20:52.683Z,54.97
2018-11-28T19:23:22.413Z,58.43
2018-11-28T19:25:52.316Z,61.97
2018-11-28T19:28:22.125Z,62.40
2018-11-28T19:30:51.976Z,63.87
2018-11-28T19:33:21.956Z,57.53
2018-11-28T19:35:51.787Z,59.70
2018-11-28T19:38:22.415Z,60.57
2018-11-28T19:40:57.469Z,57.67
2018-11-28T19:43:27.088Z,52.93
2018-11-28T19:45:55.814Z,57.07
2018-11-28T19:48:26.439Z,56.10
2018-11-28T19:50:55.939Z,52.20
2018-11-28T19:53:25.588Z,54.30
2018-11-28T19:55:55.084Z,50.27
2018-11-28T19:58:26.682Z,57.60
2018-11-28T20:00:56.730Z,52.60
2018-11-28T20:03:25.464Z,52.80
2018-11-28T20:05:56.500Z,53.50
2018-11-28T20:08:26.114Z,53.50
2018-11-28T20:10:56.204Z,54.90
2018-11-28T20:13:25.508Z,53.17
2018-11-28T20:15:57.095Z,59.67
2018-11-28T20:18:26.276Z,60.33
2018-11-28T20:20:55.752Z,69.17
2018-11-28T20:23:24.494Z,62.27
2018-11-28T20:25:54.205Z,61.27
2018-11-28T20:28:23.919Z,56.33
2018-11-28T20:30:53.706Z,59.13
2018-11-28T20:33:23.466Z,59.67
2018-11-28T20:35:53.291Z,62.43
2018-11-28T20:38:26.875Z,62.50
2018-11-28T20:40:55.492Z,60.43
2018-11-28T20:43:24.107Z,55.53
2018-11-28T20:45:52.774Z,60.40
2018-11-28T20:48:21.447Z,53.37
2018-11-28T20:50:50.728Z,53.97
2018-11-28T20:53:20.715Z,56.53
2018-11-28T20:55:49.924Z,52.17
2018-11-28T20:58:19.278Z,53.33
2018-11-28T21:00:48.049Z,54.37
2018-11-28T21:03:16.659Z,51.73
2018-11-28T21:05:45.719Z,52.50
2018-11-28T21:08:14.428Z,55.30
2018-11-28T21:10:43.426Z,56.93
2018-11-28T21:13:13.598Z,49.13
2018-11-28T21:15:44.050Z,49.93
2018-11-28T21:18:12.717Z,55.07
2018-11-28T21:20:42.799Z,50.00
2018-11-28T21:23:12.908Z,48.77
2018-11-28T21:25:41.525Z,50.67
2018-11-28T21:28:10.231Z,48.77
2018-11-28T21:30:38.908Z,52.60
2018-11-28T21:33:09.480Z,47.23
2018-11-28T21:35:39.578Z,46.80
2018-11-28T21:38:09.058Z,48.67
2018-11-28T21:40:38.468Z,49.13
2018-11-28T21:43:07.811Z,53.17
2018-11-28T21:45:36.850Z,54.43
2018-11-28T21:48:05.835Z,53.20
2018-11-28T21:50:35.197Z,50.30
2018-11-28T21:53:04.178Z,51.10
2018-11-28T21:55:33.434Z,48.27
2018-11-28T21:58:02.508Z,50.50
2018-11-28T22:00:31.433Z,52.00
2018-11-28T22:03:00.357Z,52.43
2018-11-28T22:05:29.276Z,48.37
2018-11-28T22:07:58.198Z,50.33
2018-11-28T22:10:27.806Z,49.20
2018-11-28T22:12:56.900Z,51.50
2018-11-28T22:15:25.814Z,50.57
2018-11-28T22:17:57.670Z,48.10
2018-11-28T22:20:27.138Z,55.07
2018-11-28T22:22:56.077Z,49.87
2018-11-28T22:25:25.798Z,50.60
2018-11-28T22:27:54.751Z,48.97
2018-11-28T22:30:25.682Z,49.03
2018-11-28T22:32:54.227Z,54.97
2018-11-28T22:35:23.649Z,49.27
2018-11-28T22:37:52.959Z,51.10
2018-11-28T22:40:28.735Z,52.10
2018-11-28T22:42:57.574Z,50.67
2018-11-28T22:45:28.395Z,47.43
2018-11-28T22:47:56.972Z,50.30
2018-11-28T22:50:26.298Z,48.10
2018-11-28T22:52:54.866Z,50.93
2018-11-28T22:55:23.486Z,50.53
2018-11-28T22:57:52.185Z,51.50
2018-11-28T23:00:28.875Z,46.63
2018-11-28T23:03:13.320Z,47.63
2018-11-28T23:05:46.402Z,46.27
2018-11-28T23:08:16.167Z,48.37
2018-11-28T23:10:44.875Z,48.43
2018-11-28T23:13:15.710Z,49.63
2018-11-28T23:15:44.312Z,46.40
2018-11-28T23:18:13.164Z,49.07
2018-11-28T23:20:41.917Z,46.53
2018-11-28T23:23:10.711Z,45.87
2018-11-28T23:25:39.322Z,47.40
2018-11-28T23:28:08.483Z,51.23
2018-11-28T23:30:37.921Z,48.23
2018-11-28T23:33:09.014Z,48.50
2018-11-28T23:35:37.840Z,52.93
2018-11-28T23:38:08.042Z,47.70
2018-11-28T23:40:36.818Z,49.13
2018-11-28T23:43:05.804Z,52.50
2018-11-28T23:45:34.362Z,47.77
2018-11-28T23:48:03.093Z,47.80
2018-11-28T23:50:31.682Z,48.30
2018-11-28T23:53:00.433Z,44.60
2018-11-28T23:55:30.220Z,53.00
2018-11-28T23:57:58.776Z,48.47
